sensor_id;sensor_type;location;lat;lon;timestamp;P1;durP1;ratioP1;P2;durP2;ratioP2
3267;SDS011;1646;52.450;13.326;2023-04-28T00:00:55;18.67;;;6.43;;
3267;SDS011;1646;52.450;13.326;2023-04-28T00:05:54;9.13;;;5.40;;
3267;SDS011;1646;52.450;13.326;2023-04-28T00:10:53;8.97;;;4.90;;
3267;SDS011;1646;52.450;13.326;2023-04-28T00:15:52;11.47;;;5.63;;
3267;SDS011;1646;52.450;13.326;2023-04-28T00:20:51;15.00;;;6.57;;
3267;SDS011;1646;52.450;13.326;2023-04-28T00:25:50;18.50;;;6.83;;
3267;SDS011;1646;52.450;13.326;2023-04-28T00:30:48;10.70;;;5.37;;
3267;SDS011;1646;52.450;13.326;2023-04-28T00:35:48;12.03;;;6.37;;
3267;SDS011;1646;52.450;13.326;2023-04-28T00:40:46;12.60;;;6.50;;
3267;SDS011;1646;52.450;13.326;2023-04-28T00:45:44;11.77;;;5.30;;
3267;SDS011;1646;52.450;13.326;2023-04-28T00:50:43;9.37;;;5.33;;
3267;SDS011;1646;52.450;13.326;2023-04-28T00:55:43;15.33;;;5.13;;
3267;SDS011;1646;52.450;13.326;2023-04-28T01:00:43;9.10;;;5.20;;
3267;SDS011;1646;52.450;13.326;2023-04-28T01:05:41;14.13;;;5.90;;
3267;SDS011;1646;52.450;13.326;2023-04-28T01:10:43;9.50;;;5.40;;
3267;SDS011;1646;52.450;13.326;2023-04-28T01:15:57;14.40;;;5.77;;
3267;SDS011;1646;52.450;13.326;2023-04-28T01:20:56;10.07;;;6.07;;
3267;SDS011;1646;52.450;13.326;2023-04-28T01:25:55;12.83;;;5.37;;
3267;SDS011;1646;52.450;13.326;2023-04-28T01:30:53;11.60;;;5.13;;
3267;SDS011;1646;52.450;13.326;2023-04-28T01:35:55;11.93;;;5.47;;
3267;SDS011;1646;52.450;13.326;2023-04-28T01:40:55;8.70;;;5.13;;
3267;SDS011;1646;52.450;13.326;2023-04-28T01:45:54;6.40;;;4.20;;
3267;SDS011;1646;52.450;13.326;2023-04-28T01:50:53;12.27;;;5.50;;
3267;SDS011;1646;52.450;13.326;2023-04-28T01:55:51;12.50;;;5.40;;
3267;SDS011;1646;52.450;13.326;2023-04-28T02:00:52;14.50;;;4.97;;
3267;SDS011;1646;52.450;13.326;2023-04-28T02:05:51;8.17;;;4.97;;
3267;SDS011;1646;52.450;13.326;2023-04-28T02:10:49;6.67;;;4.33;;
3267;SDS011;1646;52.450;13.326;2023-04-28T02:15:49;8.43;;;4.03;;
3267;SDS011;1646;52.450;13.326;2023-04-28T02:20:50;11.33;;;4.73;;
3267;SDS011;1646;52.450;13.326;2023-04-28T02:25:48;8.70;;;4.50;;
3267;SDS011;1646;52.450;13.326;2023-04-28T02:30:46;12.90;;;4.43;;
3267;SDS011;1646;52.450;13.326;2023-04-28T02:35:46;6.27;;;4.03;;
3267;SDS011;1646;52.450;13.326;2023-04-28T02:40:44;10.90;;;4.47;;
3267;SDS011;1646;52.450;13.326;2023-04-28T02:45:43;8.43;;;4.47;;
3267;SDS011;1646;52.450;13.326;2023-04-28T02:50:41;10.60;;;4.40;;
3267;SDS011;1646;52.450;13.326;2023-04-28T02:55:42;9.60;;;4.70;;
3267;SDS011;1646;52.450;13.326;2023-04-28T03:00:40;15.03;;;4.57;;
3267;SDS011;1646;52.450;13.326;2023-04-28T03:05:39;10.03;;;4.60;;
3267;SDS011;1646;52.450;13.326;2023-04-28T03:10:37;8.20;;;4.33;;
3267;SDS011;1646;52.450;13.326;2023-04-28T03:15:36;7.47;;;4.20;;
3267;SDS011;1646;52.450;13.326;2023-04-28T03:20:35;7.37;;;4.77;;
3267;SDS011;1646;52.450;13.326;2023-04-28T03:25:33;7.30;;;4.90;;
3267;SDS011;1646;52.450;13.326;2023-04-28T03:30:32;9.37;;;4.77;;
3267;SDS011;1646;52.450;13.326;2023-04-28T03:35:31;9.30;;;5.23;;
3267;SDS011;1646;52.450;13.326;2023-04-28T03:40:30;11.13;;;5.87;;
3267;SDS011;1646;52.450;13.326;2023-04-28T03:45:40;6.10;;;4.40;;
3267;SDS011;1646;52.450;13.326;2023-04-28T03:50:40;12.93;;;5.90;;
3267;SDS011;1646;52.450;13.326;2023-04-28T03:55:41;8.43;;;4.80;;
3267;SDS011;1646;52.450;13.326;2023-04-28T04:00:40;9.13;;;5.10;;
3267;SDS011;1646;52.450;13.326;2023-04-28T04:05:40;13.83;;;5.33;;
3267;SDS011;1646;52.450;13.326;2023-04-28T04:10:39;8.23;;;4.80;;
3267;SDS011;1646;52.450;13.326;2023-04-28T04:15:37;10.13;;;4.90;;
3267;SDS011;1646;52.450;13.326;2023-04-28T04:20:36;7.90;;;5.00;;
3267;SDS011;1646;52.450;13.326;2023-04-28T04:25:36;9.53;;;5.40;;
3267;SDS011;1646;52.450;13.326;2023-04-28T04:30:35;9.97;;;5.30;;
3267;SDS011;1646;52.450;13.326;2023-04-28T04:35:33;13.87;;;5.17;;
3267;SDS011;1646;52.450;13.326;2023-04-28T04:40:32;7.87;;;4.90;;
3267;SDS011;1646;52.450;13.326;2023-04-28T04:45:32;9.77;;;4.83;;
3267;SDS011;1646;52.450;13.326;2023-04-28T04:50:30;9.93;;;5.20;;
3267;SDS011;1646;52.450;13.326;2023-04-28T04:55:28;14.37;;;4.83;;
3267;SDS011;1646;52.450;13.326;2023-04-28T05:00:27;9.97;;;5.00;;
3267;SDS011;1646;52.450;13.326;2023-04-28T05:05:26;11.87;;;5.70;;
3267;SDS011;1646;52.450;13.326;2023-04-28T05:10:39;8.10;;;4.33;;
3267;SDS011;1646;52.450;13.326;2023-04-28T05:15:38;10.80;;;5.60;;
3267;SDS011;1646;52.450;13.326;2023-04-28T05:20:58;9.50;;;4.90;;
3267;SDS011;1646;52.450;13.326;2023-04-28T05:25:56;8.73;;;5.20;;
3267;SDS011;1646;52.450;13.326;2023-04-28T05:30:55;7.90;;;4.40;;
3267;SDS011;1646;52.450;13.326;2023-04-28T05:35:54;13.07;;;5.57;;
3267;SDS011;1646;52.450;13.326;2023-04-28T05:40:54;12.23;;;5.40;;
3267;SDS011;1646;52.450;13.326;2023-04-28T05:45:52;11.67;;;5.10;;
3267;SDS011;1646;52.450;13.326;2023-04-28T05:50:51;5.53;;;4.60;;
3267;SDS011;1646;52.450;13.326;2023-04-28T05:55:50;10.80;;;5.03;;
3267;SDS011;1646;52.450;13.326;2023-04-28T06:00:50;11.83;;;4.20;;
3267;SDS011;1646;52.450;13.326;2023-04-28T06:05:49;8.40;;;4.20;;
3267;SDS011;1646;52.450;13.326;2023-04-28T06:10:48;8.90;;;3.93;;
3267;SDS011;1646;52.450;13.326;2023-04-28T06:15:49;8.23;;;3.73;;
3267;SDS011;1646;52.450;13.326;2023-04-28T06:20:49;10.03;;;3.70;;
3267;SDS011;1646;52.450;13.326;2023-04-28T06:25:48;10.53;;;4.00;;
3267;SDS011;1646;52.450;13.326;2023-04-28T06:30:47;7.53;;;3.27;;
3267;SDS011;1646;52.450;13.326;2023-04-28T06:35:46;7.93;;;3.83;;
3267;SDS011;1646;52.450;13.326;2023-04-28T06:40:46;6.13;;;3.93;;
3267;SDS011;1646;52.450;13.326;2023-04-28T06:45:44;5.47;;;3.33;;
3267;SDS011;1646;52.450;13.326;2023-04-28T06:50:42;9.60;;;4.37;;
3267;SDS011;1646;52.450;13.326;2023-04-28T06:55:42;10.00;;;4.73;;
3267;SDS011;1646;52.450;13.326;2023-04-28T07:00:40;5.63;;;3.60;;
3267;SDS011;1646;52.450;13.326;2023-04-28T07:05:39;9.70;;;3.77;;
3267;SDS011;1646;52.450;13.326;2023-04-28T07:10:37;8.47;;;4.13;;
3267;SDS011;1646;52.450;13.326;2023-04-28T07:15:37;8.47;;;4.10;;
3267;SDS011;1646;52.450;13.326;2023-04-28T07:20:36;6.33;;;4.20;;
3267;SDS011;1646;52.450;13.326;2023-04-28T07:25:34;7.50;;;4.33;;
3267;SDS011;1646;52.450;13.326;2023-04-28T07:30:32;9.90;;;4.00;;
3267;SDS011;1646;52.450;13.326;2023-04-28T07:35:32;9.30;;;5.30;;
3267;SDS011;1646;52.450;13.326;2023-04-28T07:40:30;7.17;;;4.20;;
3267;SDS011;1646;52.450;13.326;2023-04-28T07:45:29;13.43;;;5.47;;
3267;SDS011;1646;52.450;13.326;2023-04-28T07:50:27;9.30;;;4.60;;
3267;SDS011;1646;52.450;13.326;2023-04-28T07:55:27;10.23;;;4.83;;
3267;SDS011;1646;52.450;13.326;2023-04-28T08:00:27;7.40;;;3.73;;
3267;SDS011;1646;52.450;13.326;2023-04-28T08:05:25;8.93;;;4.70;;
3267;SDS011;1646;52.450;13.326;2023-04-28T08:10:23;9.73;;;3.90;;
3267;SDS011;1646;52.450;13.326;2023-04-28T08:15:23;7.17;;;4.43;;
3267;SDS011;1646;52.450;13.326;2023-04-28T08:20:23;7.33;;;4.33;;
3267;SDS011;1646;52.450;13.326;2023-04-28T08:25:21;11.17;;;4.27;;
3267;SDS011;1646;52.450;13.326;2023-04-28T08:30:19;11.37;;;4.40;;
3267;SDS011;1646;52.450;13.326;2023-04-28T08:35:19;7.90;;;4.00;;
3267;SDS011;1646;52.450;13.326;2023-04-28T08:40:17;10.67;;;3.70;;
3267;SDS011;1646;52.450;13.326;2023-04-28T08:45:16;5.57;;;3.70;;
3267;SDS011;1646;52.450;13.326;2023-04-28T08:50:14;7.13;;;4.07;;
3267;SDS011;1646;52.450;13.326;2023-04-28T08:55:18;7.73;;;4.20;;
3267;SDS011;1646;52.450;13.326;2023-04-28T09:00:17;13.77;;;4.50;;
3267;SDS011;1646;52.450;13.326;2023-04-28T09:05:16;14.50;;;5.37;;
3267;SDS011;1646;52.450;13.326;2023-04-28T09:10:15;8.50;;;5.60;;
3267;SDS011;1646;52.450;13.326;2023-04-28T09:15:25;9.00;;;4.97;;
3267;SDS011;1646;52.450;13.326;2023-04-28T09:20:29;9.83;;;4.43;;
3267;SDS011;1646;52.450;13.326;2023-04-28T09:25:30;8.00;;;4.93;;
3267;SDS011;1646;52.450;13.326;2023-04-28T09:30:37;8.17;;;4.80;;
3267;SDS011;1646;52.450;13.326;2023-04-28T09:35:39;10.70;;;5.47;;
3267;SDS011;1646;52.450;13.326;2023-04-28T09:40:49;8.80;;;5.10;;
3267;SDS011;1646;52.450;13.326;2023-04-28T09:45:52;11.30;;;4.90;;
3267;SDS011;1646;52.450;13.326;2023-04-28T09:50:51;11.60;;;4.73;;
3267;SDS011;1646;52.450;13.326;2023-04-28T09:55:52;9.33;;;5.90;;
3267;SDS011;1646;52.450;13.326;2023-04-28T10:00:52;11.07;;;4.80;;
3267;SDS011;1646;52.450;13.326;2023-04-28T10:05:51;12.13;;;5.67;;
3267;SDS011;1646;52.450;13.326;2023-04-28T10:10:52;8.57;;;4.70;;
3267;SDS011;1646;52.450;13.326;2023-04-28T10:15:50;6.60;;;4.30;;
3267;SDS011;1646;52.450;13.326;2023-04-28T10:20:52;11.13;;;4.87;;
3267;SDS011;1646;52.450;13.326;2023-04-28T10:25:56;10.60;;;5.97;;
3267;SDS011;1646;52.450;13.326;2023-04-28T10:31:08;5.53;;;4.83;;
3267;SDS011;1646;52.450;13.326;2023-04-28T10:36:07;6.43;;;4.60;;
3267;SDS011;1646;52.450;13.326;2023-04-28T10:41:07;9.67;;;4.97;;
3267;SDS011;1646;52.450;13.326;2023-04-28T10:46:29;10.80;;;4.90;;
3267;SDS011;1646;52.450;13.326;2023-04-28T10:51:57;9.20;;;5.23;;
3267;SDS011;1646;52.450;13.326;2023-04-28T10:57:14;12.00;;;5.67;;
3267;SDS011;1646;52.450;13.326;2023-04-28T11:13:26;10.13;;;5.10;;
3267;SDS011;1646;52.450;13.326;2023-04-28T11:18:29;11.93;;;5.33;;
3267;SDS011;1646;52.450;13.326;2023-04-28T11:23:34;18.00;;;6.50;;
3267;SDS011;1646;52.450;13.326;2023-04-28T11:28:34;10.00;;;5.83;;
3267;SDS011;1646;52.450;13.326;2023-04-28T11:33:33;10.90;;;5.20;;
3267;SDS011;1646;52.450;13.326;2023-04-28T11:38:41;9.27;;;5.37;;
3267;SDS011;1646;52.450;13.326;2023-04-28T11:43:41;9.50;;;5.20;;
3267;SDS011;1646;52.450;13.326;2023-04-28T11:48:43;9.10;;;5.30;;
3267;SDS011;1646;52.450;13.326;2023-04-28T11:53:41;7.70;;;4.80;;
3267;SDS011;1646;52.450;13.326;2023-04-28T11:58:42;10.13;;;5.80;;
3267;SDS011;1646;52.450;13.326;2023-04-28T12:03:43;12.37;;;4.97;;
3267;SDS011;1646;52.450;13.326;2023-04-28T12:08:41;10.73;;;5.60;;
3267;SDS011;1646;52.450;13.326;2023-04-28T12:13:40;8.73;;;5.90;;
3267;SDS011;1646;52.450;13.326;2023-04-28T12:18:42;14.93;;;5.33;;
3267;SDS011;1646;52.450;13.326;2023-04-28T12:23:55;9.70;;;5.50;;
3267;SDS011;1646;52.450;13.326;2023-04-28T12:28:55;16.00;;;5.60;;
3267;SDS011;1646;52.450;13.326;2023-04-28T12:33:53;8.90;;;5.73;;
3267;SDS011;1646;52.450;13.326;2023-04-28T12:38:51;8.93;;;5.10;;
3267;SDS011;1646;52.450;13.326;2023-04-28T12:43:50;8.47;;;5.40;;
3267;SDS011;1646;52.450;13.326;2023-04-28T12:48:50;7.07;;;4.37;;
3267;SDS011;1646;52.450;13.326;2023-04-28T12:53:48;16.40;;;5.10;;
3267;SDS011;1646;52.450;13.326;2023-04-28T12:58:47;8.93;;;4.50;;
3267;SDS011;1646;52.450;13.326;2023-04-28T13:03:45;8.53;;;4.80;;
3267;SDS011;1646;52.450;13.326;2023-04-28T13:08:45;15.13;;;5.20;;
3267;SDS011;1646;52.450;13.326;2023-04-28T13:13:43;8.10;;;4.77;;
3267;SDS011;1646;52.450;13.326;2023-04-28T13:18:42;10.40;;;4.30;;
3267;SDS011;1646;52.450;13.326;2023-04-28T13:23:40;7.20;;;4.73;;
3267;SDS011;1646;52.450;13.326;2023-04-28T13:28:40;8.83;;;4.60;;
3267;SDS011;1646;52.450;13.326;2023-04-28T13:33:38;16.23;;;5.17;;
3267;SDS011;1646;52.450;13.326;2023-04-28T13:38:36;11.43;;;5.50;;
3267;SDS011;1646;52.450;13.326;2023-04-28T13:43:35;9.53;;;4.80;;
3267;SDS011;1646;52.450;13.326;2023-04-28T13:48:34;9.87;;;5.37;;
3267;SDS011;1646;52.450;13.326;2023-04-28T13:53:33;9.43;;;5.83;;
3267;SDS011;1646;52.450;13.326;2023-04-28T13:58:32;12.43;;;5.40;;
3267;SDS011;1646;52.450;13.326;2023-04-28T14:03:31;7.30;;;4.50;;
3267;SDS011;1646;52.450;13.326;2023-04-28T14:08:31;21.60;;;5.93;;
3267;SDS011;1646;52.450;13.326;2023-04-28T14:13:29;11.20;;;5.00;;
3267;SDS011;1646;52.450;13.326;2023-04-28T14:18:28;11.47;;;5.53;;
3267;SDS011;1646;52.450;13.326;2023-04-28T14:23:28;12.13;;;6.00;;
3267;SDS011;1646;52.450;13.326;2023-04-28T14:28:28;13.33;;;5.80;;
3267;SDS011;1646;52.450;13.326;2023-04-28T14:33:26;9.87;;;5.40;;
3267;SDS011;1646;52.450;13.326;2023-04-28T14:38:24;8.43;;;4.90;;
3267;SDS011;1646;52.450;13.326;2023-04-28T14:43:24;10.47;;;4.80;;
3267;SDS011;1646;52.450;13.326;2023-04-28T14:48:23;8.50;;;5.03;;
3267;SDS011;1646;52.450;13.326;2023-04-28T14:53:22;18.00;;;5.80;;
3267;SDS011;1646;52.450;13.326;2023-04-28T14:58:20;10.07;;;5.90;;
3267;SDS011;1646;52.450;13.326;2023-04-28T15:03:18;15.60;;;6.07;;
3267;SDS011;1646;52.450;13.326;2023-04-28T15:08:18;10.57;;;6.40;;
3267;SDS011;1646;52.450;13.326;2023-04-28T15:13:16;11.13;;;5.97;;
3267;SDS011;1646;52.450;13.326;2023-04-28T15:18:15;13.67;;;6.53;;
3267;SDS011;1646;52.450;13.326;2023-04-28T15:23:13;12.53;;;6.90;;
3267;SDS011;1646;52.450;13.326;2023-04-28T15:28:13;16.10;;;7.97;;
3267;SDS011;1646;52.450;13.326;2023-04-28T15:33:11;16.23;;;8.10;;
3267;SDS011;1646;52.450;13.326;2023-04-28T15:38:12;15.53;;;7.30;;
3267;SDS011;1646;52.450;13.326;2023-04-28T15:43:13;11.83;;;6.33;;
3267;SDS011;1646;52.450;13.326;2023-04-28T15:48:11;12.43;;;6.13;;
3267;SDS011;1646;52.450;13.326;2023-04-28T15:53:10;13.70;;;7.37;;
3267;SDS011;1646;52.450;13.326;2023-04-28T15:58:08;11.13;;;6.77;;
3267;SDS011;1646;52.450;13.326;2023-04-28T16:03:08;10.37;;;6.90;;
3267;SDS011;1646;52.450;13.326;2023-04-28T16:08:07;14.27;;;7.17;;
3267;SDS011;1646;52.450;13.326;2023-04-28T16:13:05;8.97;;;6.67;;
3267;SDS011;1646;52.450;13.326;2023-04-28T16:18:06;10.87;;;7.50;;
3267;SDS011;1646;52.450;13.326;2023-04-28T16:23:06;12.10;;;7.90;;
3267;SDS011;1646;52.450;13.326;2023-04-28T16:28:24;14.57;;;8.60;;
3267;SDS011;1646;52.450;13.326;2023-04-28T16:33:22;14.67;;;8.73;;
3267;SDS011;1646;52.450;13.326;2023-04-28T16:38:22;9.83;;;7.80;;
3267;SDS011;1646;52.450;13.326;2023-04-28T16:43:20;9.10;;;7.63;;
3267;SDS011;1646;52.450;13.326;2023-04-28T16:48:19;15.63;;;9.90;;
3267;SDS011;1646;52.450;13.326;2023-04-28T16:53:17;17.83;;;7.97;;
3267;SDS011;1646;52.450;13.326;2023-04-28T16:58:17;12.30;;;8.00;;
3267;SDS011;1646;52.450;13.326;2023-04-28T17:03:15;17.10;;;9.10;;
3267;SDS011;1646;52.450;13.326;2023-04-28T17:08:13;9.90;;;8.13;;
3267;SDS011;1646;52.450;13.326;2023-04-28T17:13:11;14.03;;;8.87;;
3267;SDS011;1646;52.450;13.326;2023-04-28T17:18:11;17.40;;;9.00;;
3267;SDS011;1646;52.450;13.326;2023-04-28T17:23:09;16.07;;;8.87;;
3267;SDS011;1646;52.450;13.326;2023-04-28T17:28:08;16.00;;;9.53;;
3267;SDS011;1646;52.450;13.326;2023-04-28T17:33:06;12.67;;;9.13;;
3267;SDS011;1646;52.450;13.326;2023-04-28T17:38:08;12.97;;;9.33;;
3267;SDS011;1646;52.450;13.326;2023-04-28T17:43:06;16.53;;;10.60;;
3267;SDS011;1646;52.450;13.326;2023-04-28T17:48:04;17.30;;;11.10;;
3267;SDS011;1646;52.450;13.326;2023-04-28T17:53:03;14.80;;;10.00;;
3267;SDS011;1646;52.450;13.326;2023-04-28T17:58:04;15.60;;;9.77;;
3267;SDS011;1646;52.450;13.326;2023-04-28T18:03:02;14.03;;;10.10;;
3267;SDS011;1646;52.450;13.326;2023-04-28T18:08:01;17.07;;;10.87;;
3267;SDS011;1646;52.450;13.326;2023-04-28T18:12:59;17.73;;;10.67;;
3267;SDS011;1646;52.450;13.326;2023-04-28T18:17:59;13.57;;;9.47;;
3267;SDS011;1646;52.450;13.326;2023-04-28T18:22:57;12.13;;;9.13;;
3267;SDS011;1646;52.450;13.326;2023-04-28T18:27:57;11.77;;;8.83;;
3267;SDS011;1646;52.450;13.326;2023-04-28T18:32:57;14.83;;;8.80;;
3267;SDS011;1646;52.450;13.326;2023-04-28T18:37:56;15.57;;;8.87;;
3267;SDS011;1646;52.450;13.326;2023-04-28T18:42:56;14.30;;;9.20;;
3267;SDS011;1646;52.450;13.326;2023-04-28T18:47:54;11.50;;;8.30;;
3267;SDS011;1646;52.450;13.326;2023-04-28T18:52:54;15.10;;;9.10;;
3267;SDS011;1646;52.450;13.326;2023-04-28T18:57:54;14.53;;;8.93;;
3267;SDS011;1646;52.450;13.326;2023-04-28T19:02:52;12.90;;;8.70;;
3267;SDS011;1646;52.450;13.326;2023-04-28T19:07:50;10.73;;;7.80;;
3267;SDS011;1646;52.450;13.326;2023-04-28T19:12:48;12.70;;;8.23;;
3267;SDS011;1646;52.450;13.326;2023-04-28T19:17:48;13.30;;;9.17;;
3267;SDS011;1646;52.450;13.326;2023-04-28T19:22:47;16.67;;;9.37;;
3267;SDS011;1646;52.450;13.326;2023-04-28T19:27:47;17.53;;;11.30;;
3267;SDS011;1646;52.450;13.326;2023-04-28T19:32:45;14.20;;;8.20;;
3267;SDS011;1646;52.450;13.326;2023-04-28T19:37:44;11.20;;;9.20;;
3267;SDS011;1646;52.450;13.326;2023-04-28T19:42:43;13.20;;;9.50;;
3267;SDS011;1646;52.450;13.326;2023-04-28T19:47:42;13.37;;;8.00;;
3267;SDS011;1646;52.450;13.326;2023-04-28T19:52:40;11.40;;;8.13;;
3267;SDS011;1646;52.450;13.326;2023-04-28T19:57:39;10.93;;;7.60;;
3267;SDS011;1646;52.450;13.326;2023-04-28T20:02:38;10.70;;;7.47;;
3267;SDS011;1646;52.450;13.326;2023-04-28T20:07:37;14.50;;;7.77;;
3267;SDS011;1646;52.450;13.326;2023-04-28T20:12:36;9.33;;;6.70;;
3267;SDS011;1646;52.450;13.326;2023-04-28T20:17:35;12.43;;;7.20;;
3267;SDS011;1646;52.450;13.326;2023-04-28T20:22:34;11.20;;;7.27;;
3267;SDS011;1646;52.450;13.326;2023-04-28T20:27:32;14.00;;;7.77;;
3267;SDS011;1646;52.450;13.326;2023-04-28T20:32:30;12.03;;;7.63;;
3267;SDS011;1646;52.450;13.326;2023-04-28T20:37:30;10.60;;;7.73;;
3267;SDS011;1646;52.450;13.326;2023-04-28T20:42:28;13.30;;;8.40;;
3267;SDS011;1646;52.450;13.326;2023-04-28T20:47:26;14.10;;;8.30;;
3267;SDS011;1646;52.450;13.326;2023-04-28T20:52:24;12.90;;;9.10;;
3267;SDS011;1646;52.450;13.326;2023-04-28T20:57:25;10.93;;;7.83;;
3267;SDS011;1646;52.450;13.326;2023-04-28T21:02:23;11.17;;;8.60;;
3267;SDS011;1646;52.450;13.326;2023-04-28T21:07:21;22.10;;;9.47;;
3267;SDS011;1646;52.450;13.326;2023-04-28T21:12:20;13.53;;;8.90;;
3267;SDS011;1646;52.450;13.326;2023-04-28T21:17:19;12.87;;;8.43;;
3267;SDS011;1646;52.450;13.326;2023-04-28T21:22:18;10.93;;;7.67;;
3267;SDS011;1646;52.450;13.326;2023-04-28T21:27:16;10.70;;;7.57;;
3267;SDS011;1646;52.450;13.326;2023-04-28T21:32:14;8.00;;;6.87;;
3267;SDS011;1646;52.450;13.326;2023-04-28T21:37:15;10.80;;;6.87;;
3267;SDS011;1646;52.450;13.326;2023-04-28T21:42:13;10.60;;;7.47;;
3267;SDS011;1646;52.450;13.326;2023-04-28T21:47:11;9.87;;;7.90;;
3267;SDS011;1646;52.450;13.326;2023-04-28T21:52:12;9.20;;;6.80;;
3267;SDS011;1646;52.450;13.326;2023-04-28T21:57:11;16.47;;;8.00;;
3267;SDS011;1646;52.450;13.326;2023-04-28T22:02:11;10.37;;;7.10;;
3267;SDS011;1646;52.450;13.326;2023-04-28T22:07:09;11.60;;;7.17;;
3267;SDS011;1646;52.450;13.326;2023-04-28T22:12:07;10.37;;;6.87;;
3267;SDS011;1646;52.450;13.326;2023-04-28T22:17:07;17.00;;;7.53;;
3267;SDS011;1646;52.450;13.326;2023-04-28T22:22:05;9.87;;;7.43;;
3267;SDS011;1646;52.450;13.326;2023-04-28T22:27:04;11.33;;;7.33;;
3267;SDS011;1646;52.450;13.326;2023-04-28T22:32:02;10.50;;;7.43;;
3267;SDS011;1646;52.450;13.326;2023-04-28T22:37:21;12.43;;;7.40;;
3267;SDS011;1646;52.450;13.326;2023-04-28T22:42:19;13.00;;;7.77;;
3267;SDS011;1646;52.450;13.326;2023-04-28T22:47:17;14.37;;;7.50;;
3267;SDS011;1646;52.450;13.326;2023-04-28T22:52:16;10.67;;;7.10;;
3267;SDS011;1646;52.450;13.326;2023-04-28T22:57:17;11.10;;;6.60;;
3267;SDS011;1646;52.450;13.326;2023-04-28T23:02:15;12.37;;;7.50;;
3267;SDS011;1646;52.450;13.326;2023-04-28T23:07:13;6.93;;;6.23;;
3267;SDS011;1646;52.450;13.326;2023-04-28T23:12:12;8.87;;;6.57;;
3267;SDS011;1646;52.450;13.326;2023-04-28T23:17:11;9.50;;;7.20;;
3267;SDS011;1646;52.450;13.326;2023-04-28T23:22:09;11.97;;;6.00;;
3267;SDS011;1646;52.450;13.326;2023-04-28T23:27:08;10.80;;;6.13;;
3267;SDS011;1646;52.450;13.326;2023-04-28T23:32:06;12.83;;;7.53;;
3267;SDS011;1646;52.450;13.326;2023-04-28T23:37:06;8.53;;;6.17;;
3267;SDS011;1646;52.450;13.326;2023-04-28T23:42:04;8.50;;;6.27;;
3267;SDS011;1646;52.450;13.326;2023-04-28T23:47:03;7.53;;;6.20;;
3267;SDS011;1646;52.450;13.326;2023-04-28T23:52:01;9.83;;;6.40;;
3267;SDS011;1646;52.450;13.326;2023-04-28T23:57:01;10.27;;;6.50;;
